sensor_id;sensor_type;location;lat;lon;timestamp;temperature;humidity
30097;DHT22;16915;51.466;3.610;2023-08-12T00:00:17;20.00;99.90
30097;DHT22;16915;51.466;3.610;2023-08-12T00:02:43;20.00;99.90
30097;DHT22;16915;51.466;3.610;2023-08-12T00:05:10;20.00;99.90
30097;DHT22;16915;51.466;3.610;2023-08-12T00:07:40;20.00;99.90
30097;DHT22;16915;51.466;3.610;2023-08-12T00:10:07;20.00;99.90
30097;DHT22;16915;51.466;3.610;2023-08-12T00:12:33;20.00;99.90
30097;DHT22;16915;51.466;3.610;2023-08-12T00:14:59;20.00;99.90
30097;DHT22;16915;51.466;3.610;2023-08-12T00:17:26;20.00;99.90
30097;DHT22;16915;51.466;3.610;2023-08-12T00:19:52;20.00;99.90
30097;DHT22;16915;51.466;3.610;2023-08-12T00:22:17;20.00;99.90
30097;DHT22;16915;51.466;3.610;2023-08-12T00:24:43;20.10;99.90
30097;DHT22;16915;51.466;3.610;2023-08-12T00:27:10;20.10;99.90
30097;DHT22;16915;51.466;3.610;2023-08-12T00:29:35;20.00;99.90
30097;DHT22;16915;51.466;3.610;2023-08-12T00:32:01;20.00;99.90
30097;DHT22;16915;51.466;3.610;2023-08-12T00:34:27;19.90;99.90
30097;DHT22;16915;51.466;3.610;2023-08-12T00:36:53;19.90;99.90
30097;DHT22;16915;51.466;3.610;2023-08-12T00:39:18;19.90;99.90
30097;DHT22;16915;51.466;3.610;2023-08-12T00:41:44;19.90;99.90
30097;DHT22;16915;51.466;3.610;2023-08-12T00:44:10;19.90;99.90
30097;DHT22;16915;51.466;3.610;2023-08-12T00:46:36;19.80;99.90
30097;DHT22;16915;51.466;3.610;2023-08-12T00:49:04;19.80;99.90
30097;DHT22;16915;51.466;3.610;2023-08-12T00:51:30;19.80;99.90
30097;DHT22;16915;51.466;3.610;2023-08-12T00:53:57;19.80;99.90
30097;DHT22;16915;51.466;3.610;2023-08-12T00:56:24;19.70;99.90
30097;DHT22;16915;51.466;3.610;2023-08-12T00:58:50;19.70;99.90
30097;DHT22;16915;51.466;3.610;2023-08-12T01:01:15;19.70;99.90
30097;DHT22;16915;51.466;3.610;2023-08-12T01:03:43;19.60;99.90
30097;DHT22;16915;51.466;3.610;2023-08-12T01:06:08;19.50;99.90
30097;DHT22;16915;51.466;3.610;2023-08-12T01:08:35;19.50;99.90
30097;DHT22;16915;51.466;3.610;2023-08-12T01:11:24;19.40;99.90
30097;DHT22;16915;51.466;3.610;2023-08-12T01:14:13;19.40;99.90
30097;DHT22;16915;51.466;3.610;2023-08-12T01:16:44;19.30;99.90
30097;DHT22;16915;51.466;3.610;2023-08-12T01:19:20;19.30;99.90
30097;DHT22;16915;51.466;3.610;2023-08-12T01:21:52;19.30;99.90
30097;DHT22;16915;51.466;3.610;2023-08-12T01:24:21;19.30;99.90
30097;DHT22;16915;51.466;3.610;2023-08-12T01:26:47;19.20;99.90
30097;DHT22;16915;51.466;3.610;2023-08-12T01:29:12;19.30;99.90
30097;DHT22;16915;51.466;3.610;2023-08-12T01:32:21;19.20;99.90
30097;DHT22;16915;51.466;3.610;2023-08-12T01:35:02;19.30;99.90
30097;DHT22;16915;51.466;3.610;2023-08-12T01:37:30;19.20;99.90
30097;DHT22;16915;51.466;3.610;2023-08-12T01:39:59;19.20;99.90
30097;DHT22;16915;51.466;3.610;2023-08-12T01:42:25;19.30;99.90
30097;DHT22;16915;51.466;3.610;2023-08-12T01:44:52;19.20;99.90
30097;DHT22;16915;51.466;3.610;2023-08-12T01:47:17;19.20;99.90
30097;DHT22;16915;51.466;3.610;2023-08-12T01:49:43;19.20;99.90
30097;DHT22;16915;51.466;3.610;2023-08-12T01:52:08;19.20;99.90
30097;DHT22;16915;51.466;3.610;2023-08-12T01:54:34;19.20;99.90
30097;DHT22;16915;51.466;3.610;2023-08-12T01:57:04;19.20;99.90
30097;DHT22;16915;51.466;3.610;2023-08-12T01:59:34;19.20;99.90
30097;DHT22;16915;51.466;3.610;2023-08-12T02:01:59;19.20;99.90
30097;DHT22;16915;51.466;3.610;2023-08-12T02:04:26;19.20;99.90
30097;DHT22;16915;51.466;3.610;2023-08-12T02:06:52;19.20;99.90
30097;DHT22;16915;51.466;3.610;2023-08-12T02:09:18;19.20;99.90
30097;DHT22;16915;51.466;3.610;2023-08-12T02:11:43;19.10;99.90
30097;DHT22;16915;51.466;3.610;2023-08-12T02:14:09;19.10;99.90
30097;DHT22;16915;51.466;3.610;2023-08-12T02:16:35;19.10;99.90
30097;DHT22;16915;51.466;3.610;2023-08-12T02:19:00;19.10;99.90
30097;DHT22;16915;51.466;3.610;2023-08-12T02:21:26;19.10;99.90
30097;DHT22;16915;51.466;3.610;2023-08-12T02:23:51;19.10;99.90
30097;DHT22;16915;51.466;3.610;2023-08-12T02:26:17;19.10;99.90
30097;DHT22;16915;51.466;3.610;2023-08-12T02:28:42;19.10;99.90
30097;DHT22;16915;51.466;3.610;2023-08-12T02:31:08;19.10;99.90
30097;DHT22;16915;51.466;3.610;2023-08-12T02:33:34;19.10;99.90
30097;DHT22;16915;51.466;3.610;2023-08-12T02:35:59;19.10;99.90
30097;DHT22;16915;51.466;3.610;2023-08-12T02:38:25;19.10;99.90
30097;DHT22;16915;51.466;3.610;2023-08-12T02:40:51;19.10;99.90
30097;DHT22;16915;51.466;3.610;2023-08-12T02:43:17;19.20;99.90
30097;DHT22;16915;51.466;3.610;2023-08-12T02:45:43;19.20;99.90
30097;DHT22;16915;51.466;3.610;2023-08-12T02:48:12;19.20;99.90
30097;DHT22;16915;51.466;3.610;2023-08-12T02:50:38;19.20;99.90
30097;DHT22;16915;51.466;3.610;2023-08-12T02:53:05;19.20;99.90
30097;DHT22;16915;51.466;3.610;2023-08-12T02:55:31;19.20;99.90
30097;DHT22;16915;51.466;3.610;2023-08-12T02:58:00;19.20;99.90
30097;DHT22;16915;51.466;3.610;2023-08-12T03:00:26;19.20;99.90
30097;DHT22;16915;51.466;3.610;2023-08-12T03:02:53;19.20;99.90
30097;DHT22;16915;51.466;3.610;2023-08-12T03:05:19;19.10;99.90
30097;DHT22;16915;51.466;3.610;2023-08-12T03:07:44;19.10;99.90
30097;DHT22;16915;51.466;3.610;2023-08-12T03:10:10;19.10;99.90
30097;DHT22;16915;51.466;3.610;2023-08-12T03:12:36;19.10;99.90
30097;DHT22;16915;51.466;3.610;2023-08-12T03:15:02;19.10;99.90
30097;DHT22;16915;51.466;3.610;2023-08-12T03:17:28;19.10;99.90
30097;DHT22;16915;51.466;3.610;2023-08-12T03:19:54;19.10;99.90
30097;DHT22;16915;51.466;3.610;2023-08-12T03:22:20;19.10;99.90
30097;DHT22;16915;51.466;3.610;2023-08-12T03:24:47;19.00;99.90
30097;DHT22;16915;51.466;3.610;2023-08-12T03:27:13;19.00;99.90
30097;DHT22;16915;51.466;3.610;2023-08-12T03:29:38;19.00;99.90
30097;DHT22;16915;51.466;3.610;2023-08-12T03:32:04;19.00;99.90
30097;DHT22;16915;51.466;3.610;2023-08-12T03:34:29;19.00;99.90
30097;DHT22;16915;51.466;3.610;2023-08-12T03:36:55;19.00;99.90
30097;DHT22;16915;51.466;3.610;2023-08-12T03:39:21;19.00;99.90
30097;DHT22;16915;51.466;3.610;2023-08-12T03:41:46;19.00;99.90
30097;DHT22;16915;51.466;3.610;2023-08-12T03:44:12;19.00;99.90
30097;DHT22;16915;51.466;3.610;2023-08-12T03:46:37;18.90;99.90
30097;DHT22;16915;51.466;3.610;2023-08-12T03:49:03;19.00;99.90
30097;DHT22;16915;51.466;3.610;2023-08-12T03:51:29;19.00;99.90
30097;DHT22;16915;51.466;3.610;2023-08-12T03:53:54;19.00;99.90
30097;DHT22;16915;51.466;3.610;2023-08-12T03:56:20;19.00;99.90
30097;DHT22;16915;51.466;3.610;2023-08-12T03:58:45;19.00;99.90
30097;DHT22;16915;51.466;3.610;2023-08-12T04:01:11;19.00;99.90
30097;DHT22;16915;51.466;3.610;2023-08-12T04:03:37;18.90;99.90
30097;DHT22;16915;51.466;3.610;2023-08-12T04:06:02;18.90;99.90
30097;DHT22;16915;51.466;3.610;2023-08-12T04:08:29;18.90;99.90
30097;DHT22;16915;51.466;3.610;2023-08-12T04:10:54;18.90;99.90
30097;DHT22;16915;51.466;3.610;2023-08-12T04:13:20;18.90;99.90
30097;DHT22;16915;51.466;3.610;2023-08-12T04:15:52;18.90;99.90
30097;DHT22;16915;51.466;3.610;2023-08-12T04:18:21;18.80;99.90
30097;DHT22;16915;51.466;3.610;2023-08-12T04:20:48;18.90;99.90
30097;DHT22;16915;51.466;3.610;2023-08-12T04:23:14;18.80;99.90
30097;DHT22;16915;51.466;3.610;2023-08-12T04:25:42;18.80;99.90
30097;DHT22;16915;51.466;3.610;2023-08-12T04:28:08;18.80;99.90
30097;DHT22;16915;51.466;3.610;2023-08-12T04:30:34;18.80;99.90
30097;DHT22;16915;51.466;3.610;2023-08-12T04:32:59;18.80;99.90
30097;DHT22;16915;51.466;3.610;2023-08-12T04:35:25;18.80;99.90
30097;DHT22;16915;51.466;3.610;2023-08-12T04:37:50;18.80;99.90
30097;DHT22;16915;51.466;3.610;2023-08-12T04:40:16;18.80;99.90
30097;DHT22;16915;51.466;3.610;2023-08-12T04:42:41;18.80;99.90
30097;DHT22;16915;51.466;3.610;2023-08-12T04:45:08;18.80;99.90
30097;DHT22;16915;51.466;3.610;2023-08-12T04:47:33;18.80;99.90
30097;DHT22;16915;51.466;3.610;2023-08-12T04:49:59;18.80;99.90
30097;DHT22;16915;51.466;3.610;2023-08-12T04:52:25;18.80;99.90
30097;DHT22;16915;51.466;3.610;2023-08-12T04:54:53;18.80;99.90
30097;DHT22;16915;51.466;3.610;2023-08-12T04:57:19;18.80;99.90
30097;DHT22;16915;51.466;3.610;2023-08-12T04:59:44;18.80;99.90
30097;DHT22;16915;51.466;3.610;2023-08-12T05:02:10;18.80;99.90
30097;DHT22;16915;51.466;3.610;2023-08-12T05:04:35;18.80;99.90
30097;DHT22;16915;51.466;3.610;2023-08-12T05:07:01;18.80;99.90
30097;DHT22;16915;51.466;3.610;2023-08-12T05:09:26;18.80;99.90
30097;DHT22;16915;51.466;3.610;2023-08-12T05:11:52;18.80;99.90
30097;DHT22;16915;51.466;3.610;2023-08-12T05:14:18;18.90;99.90
30097;DHT22;16915;51.466;3.610;2023-08-12T05:16:43;18.90;99.90
30097;DHT22;16915;51.466;3.610;2023-08-12T05:19:09;18.90;99.90
30097;DHT22;16915;51.466;3.610;2023-08-12T05:21:34;18.80;99.90
30097;DHT22;16915;51.466;3.610;2023-08-12T05:24:00;18.60;99.90
30097;DHT22;16915;51.466;3.610;2023-08-12T05:26:25;18.40;99.90
30097;DHT22;16915;51.466;3.610;2023-08-12T05:28:51;18.30;99.90
30097;DHT22;16915;51.466;3.610;2023-08-12T05:31:17;18.10;99.90
30097;DHT22;16915;51.466;3.610;2023-08-12T05:33:42;18.00;99.90
30097;DHT22;16915;51.466;3.610;2023-08-12T05:36:08;17.80;99.90
30097;DHT22;16915;51.466;3.610;2023-08-12T05:38:34;17.80;99.90
30097;DHT22;16915;51.466;3.610;2023-08-12T05:41:00;17.70;99.90
30097;DHT22;16915;51.466;3.610;2023-08-12T05:43:25;17.70;99.90
30097;DHT22;16915;51.466;3.610;2023-08-12T05:45:51;17.70;99.90
30097;DHT22;16915;51.466;3.610;2023-08-12T05:48:16;17.50;99.90
30097;DHT22;16915;51.466;3.610;2023-08-12T05:50:43;17.30;99.90
30097;DHT22;16915;51.466;3.610;2023-08-12T05:53:09;17.20;99.90
30097;DHT22;16915;51.466;3.610;2023-08-12T05:55:34;17.20;99.90
30097;DHT22;16915;51.466;3.610;2023-08-12T05:58:00;17.10;99.90
30097;DHT22;16915;51.466;3.610;2023-08-12T06:00:26;17.10;99.90
30097;DHT22;16915;51.466;3.610;2023-08-12T06:02:51;17.10;99.90
30097;DHT22;16915;51.466;3.610;2023-08-12T06:05:18;17.10;99.90
30097;DHT22;16915;51.466;3.610;2023-08-12T06:07:43;17.20;99.90
30097;DHT22;16915;51.466;3.610;2023-08-12T06:10:09;17.20;99.90
30097;DHT22;16915;51.466;3.610;2023-08-12T06:12:35;17.20;99.90
30097;DHT22;16915;51.466;3.610;2023-08-12T06:15:01;17.20;99.90
30097;DHT22;16915;51.466;3.610;2023-08-12T06:17:26;17.20;99.90
30097;DHT22;16915;51.466;3.610;2023-08-12T06:19:52;17.40;99.90
30097;DHT22;16915;51.466;3.610;2023-08-12T06:22:18;17.40;99.90
30097;DHT22;16915;51.466;3.610;2023-08-12T06:24:43;17.40;99.90
30097;DHT22;16915;51.466;3.610;2023-08-12T06:27:09;17.40;99.90
30097;DHT22;16915;51.466;3.610;2023-08-12T06:29:34;17.50;99.90
30097;DHT22;16915;51.466;3.610;2023-08-12T06:32:00;17.50;99.90
30097;DHT22;16915;51.466;3.610;2023-08-12T06:34:26;17.50;99.90
30097;DHT22;16915;51.466;3.610;2023-08-12T06:36:51;17.60;99.90
30097;DHT22;16915;51.466;3.610;2023-08-12T06:39:17;17.70;99.90
30097;DHT22;16915;51.466;3.610;2023-08-12T06:41:42;17.80;99.90
30097;DHT22;16915;51.466;3.610;2023-08-12T06:44:08;17.70;99.90
30097;DHT22;16915;51.466;3.610;2023-08-12T06:46:33;17.60;99.90
30097;DHT22;16915;51.466;3.610;2023-08-12T06:48:59;17.50;99.90
30097;DHT22;16915;51.466;3.610;2023-08-12T06:51:25;17.50;99.90
30097;DHT22;16915;51.466;3.610;2023-08-12T06:53:50;17.50;99.90
30097;DHT22;16915;51.466;3.610;2023-08-12T06:56:16;17.50;99.90
30097;DHT22;16915;51.466;3.610;2023-08-12T06:58:41;17.50;99.90
30097;DHT22;16915;51.466;3.610;2023-08-12T07:01:07;17.50;99.90
30097;DHT22;16915;51.466;3.610;2023-08-12T07:03:33;17.50;99.90
30097;DHT22;16915;51.466;3.610;2023-08-12T07:05:58;17.60;99.90
30097;DHT22;16915;51.466;3.610;2023-08-12T07:08:24;17.70;99.90
30097;DHT22;16915;51.466;3.610;2023-08-12T07:10:50;17.80;99.90
30097;DHT22;16915;51.466;3.610;2023-08-12T07:13:15;17.90;99.90
30097;DHT22;16915;51.466;3.610;2023-08-12T07:15:41;18.10;99.90
30097;DHT22;16915;51.466;3.610;2023-08-12T07:18:06;18.20;99.90
30097;DHT22;16915;51.466;3.610;2023-08-12T07:20:32;18.30;99.90
30097;DHT22;16915;51.466;3.610;2023-08-12T07:22:58;18.40;99.90
30097;DHT22;16915;51.466;3.610;2023-08-12T07:25:24;18.40;99.90
30097;DHT22;16915;51.466;3.610;2023-08-12T07:27:49;18.40;99.90
30097;DHT22;16915;51.466;3.610;2023-08-12T07:30:15;18.50;99.90
30097;DHT22;16915;51.466;3.610;2023-08-12T07:32:41;18.50;99.90
30097;DHT22;16915;51.466;3.610;2023-08-12T07:35:06;18.40;99.90
30097;DHT22;16915;51.466;3.610;2023-08-12T07:37:32;18.40;99.90
30097;DHT22;16915;51.466;3.610;2023-08-12T07:39:58;18.30;99.90
30097;DHT22;16915;51.466;3.610;2023-08-12T07:42:24;18.30;99.90
30097;DHT22;16915;51.466;3.610;2023-08-12T07:44:49;18.40;99.90
30097;DHT22;16915;51.466;3.610;2023-08-12T07:47:15;18.60;99.90
30097;DHT22;16915;51.466;3.610;2023-08-12T07:49:42;18.80;99.90
30097;DHT22;16915;51.466;3.610;2023-08-12T07:52:07;19.00;99.90
30097;DHT22;16915;51.466;3.610;2023-08-12T07:54:33;19.00;99.90
30097;DHT22;16915;51.466;3.610;2023-08-12T07:56:58;19.20;99.90
30097;DHT22;16915;51.466;3.610;2023-08-12T07:59:24;19.30;99.90
30097;DHT22;16915;51.466;3.610;2023-08-12T08:01:51;19.40;99.90
30097;DHT22;16915;51.466;3.610;2023-08-12T08:04:17;19.50;99.90
30097;DHT22;16915;51.466;3.610;2023-08-12T08:06:42;19.60;99.90
30097;DHT22;16915;51.466;3.610;2023-08-12T08:09:08;19.60;99.90
30097;DHT22;16915;51.466;3.610;2023-08-12T08:11:33;19.80;99.90
30097;DHT22;16915;51.466;3.610;2023-08-12T08:13:59;19.90;99.90
30097;DHT22;16915;51.466;3.610;2023-08-12T08:16:25;19.90;99.90
30097;DHT22;16915;51.466;3.610;2023-08-12T08:18:50;20.10;99.90
30097;DHT22;16915;51.466;3.610;2023-08-12T08:21:16;20.00;99.90
30097;DHT22;16915;51.466;3.610;2023-08-12T08:23:42;20.00;99.90
30097;DHT22;16915;51.466;3.610;2023-08-12T08:26:08;20.10;99.90
30097;DHT22;16915;51.466;3.610;2023-08-12T08:28:34;20.20;99.90
30097;DHT22;16915;51.466;3.610;2023-08-12T08:31:00;20.10;99.90
30097;DHT22;16915;51.466;3.610;2023-08-12T08:33:26;20.00;99.90
30097;DHT22;16915;51.466;3.610;2023-08-12T08:35:53;20.10;99.90
30097;DHT22;16915;51.466;3.610;2023-08-12T08:38:18;20.00;99.90
30097;DHT22;16915;51.466;3.610;2023-08-12T08:40:44;19.90;99.90
30097;DHT22;16915;51.466;3.610;2023-08-12T08:43:09;19.90;99.90
30097;DHT22;16915;51.466;3.610;2023-08-12T08:45:36;20.00;99.90
30097;DHT22;16915;51.466;3.610;2023-08-12T08:48:02;19.90;99.90
30097;DHT22;16915;51.466;3.610;2023-08-12T08:50:30;19.90;99.90
30097;DHT22;16915;51.466;3.610;2023-08-12T08:52:56;20.00;99.90
30097;DHT22;16915;51.466;3.610;2023-08-12T08:55:22;20.00;99.90
30097;DHT22;16915;51.466;3.610;2023-08-12T08:57:48;20.20;99.90
30097;DHT22;16915;51.466;3.610;2023-08-12T09:00:15;20.20;99.90
30097;DHT22;16915;51.466;3.610;2023-08-12T09:02:42;20.10;99.90
30097;DHT22;16915;51.466;3.610;2023-08-12T09:05:08;20.10;99.90
30097;DHT22;16915;51.466;3.610;2023-08-12T09:07:34;20.00;99.90
30097;DHT22;16915;51.466;3.610;2023-08-12T09:10:00;19.90;99.90
30097;DHT22;16915;51.466;3.610;2023-08-12T09:12:29;19.90;99.90
30097;DHT22;16915;51.466;3.610;2023-08-12T09:14:55;19.70;99.90
30097;DHT22;16915;51.466;3.610;2023-08-12T09:17:21;19.60;99.90
30097;DHT22;16915;51.466;3.610;2023-08-12T09:19:46;19.60;99.90
30097;DHT22;16915;51.466;3.610;2023-08-12T09:22:12;19.70;99.90
30097;DHT22;16915;51.466;3.610;2023-08-12T09:24:38;19.90;99.90
30097;DHT22;16915;51.466;3.610;2023-08-12T09:27:04;20.10;99.90
30097;DHT22;16915;51.466;3.610;2023-08-12T09:29:33;20.20;99.90
30097;DHT22;16915;51.466;3.610;2023-08-12T09:32:12;20.20;99.90
30097;DHT22;16915;51.466;3.610;2023-08-12T09:34:58;20.40;99.90
30097;DHT22;16915;51.466;3.610;2023-08-12T09:37:27;20.60;99.90
30097;DHT22;16915;51.466;3.610;2023-08-12T09:39:53;20.90;99.90
30097;DHT22;16915;51.466;3.610;2023-08-12T09:42:19;21.10;99.90
30097;DHT22;16915;51.466;3.610;2023-08-12T09:44:45;21.10;99.90
30097;DHT22;16915;51.466;3.610;2023-08-12T09:47:10;20.90;99.90
30097;DHT22;16915;51.466;3.610;2023-08-12T09:49:38;20.90;99.90
30097;DHT22;16915;51.466;3.610;2023-08-12T09:52:04;21.00;99.90
30097;DHT22;16915;51.466;3.610;2023-08-12T09:54:33;21.00;99.90
30097;DHT22;16915;51.466;3.610;2023-08-12T09:57:01;21.00;99.90
30097;DHT22;16915;51.466;3.610;2023-08-12T09:59:31;21.10;99.90
30097;DHT22;16915;51.466;3.610;2023-08-12T10:01:58;21.10;99.90
30097;DHT22;16915;51.466;3.610;2023-08-12T10:04:28;21.00;99.90
30097;DHT22;16915;51.466;3.610;2023-08-12T10:06:54;21.20;99.90
30097;DHT22;16915;51.466;3.610;2023-08-12T10:09:20;21.30;99.90
30097;DHT22;16915;51.466;3.610;2023-08-12T10:11:46;21.40;99.90
30097;DHT22;16915;51.466;3.610;2023-08-12T10:14:13;21.60;99.90
30097;DHT22;16915;51.466;3.610;2023-08-12T10:16:42;21.70;99.90
30097;DHT22;16915;51.466;3.610;2023-08-12T10:19:11;21.90;99.90
30097;DHT22;16915;51.466;3.610;2023-08-12T10:21:38;22.10;99.90
30097;DHT22;16915;51.466;3.610;2023-08-12T10:24:05;22.30;99.90
30097;DHT22;16915;51.466;3.610;2023-08-12T10:26:32;22.70;99.90
30097;DHT22;16915;51.466;3.610;2023-08-12T10:28:59;23.00;99.90
30097;DHT22;16915;51.466;3.610;2023-08-12T10:31:27;23.20;99.90
30097;DHT22;16915;51.466;3.610;2023-08-12T10:33:53;23.40;99.90
30097;DHT22;16915;51.466;3.610;2023-08-12T10:36:21;23.50;99.90
30097;DHT22;16915;51.466;3.610;2023-08-12T10:38:47;23.80;99.90
30097;DHT22;16915;51.466;3.610;2023-08-12T10:41:26;23.90;99.90
30097;DHT22;16915;51.466;3.610;2023-08-12T10:43:59;24.10;99.90
30097;DHT22;16915;51.466;3.610;2023-08-12T10:46:32;24.20;99.90
30097;DHT22;16915;51.466;3.610;2023-08-12T10:49:02;24.60;99.90
30097;DHT22;16915;51.466;3.610;2023-08-12T10:51:48;24.70;99.90
30097;DHT22;16915;51.466;3.610;2023-08-12T10:54:14;25.10;99.90
30097;DHT22;16915;51.466;3.610;2023-08-12T10:59:50;25.30;99.90
30097;DHT22;16915;51.466;3.610;2023-08-12T11:02:19;25.00;99.90
30097;DHT22;16915;51.466;3.610;2023-08-12T11:04:52;25.10;99.90
30097;DHT22;16915;51.466;3.610;2023-08-12T11:07:27;25.30;99.90
30097;DHT22;16915;51.466;3.610;2023-08-12T11:09:59;25.70;99.90
30097;DHT22;16915;51.466;3.610;2023-08-12T11:12:33;26.10;99.90
30097;DHT22;16915;51.466;3.610;2023-08-12T11:15:00;26.60;99.90
30097;DHT22;16915;51.466;3.610;2023-08-12T11:17:33;27.00;99.90
30097;DHT22;16915;51.466;3.610;2023-08-12T11:20:01;27.20;99.90
30097;DHT22;16915;51.466;3.610;2023-08-12T11:22:30;27.30;99.90
30097;DHT22;16915;51.466;3.610;2023-08-12T11:24:56;27.60;99.90
30097;DHT22;16915;51.466;3.610;2023-08-12T11:27:22;27.60;99.90
30097;DHT22;16915;51.466;3.610;2023-08-12T11:29:49;27.70;99.90
30097;DHT22;16915;51.466;3.610;2023-08-12T11:32:17;27.80;99.90
30097;DHT22;16915;51.466;3.610;2023-08-12T11:34:43;27.70;99.90
30097;DHT22;16915;51.466;3.610;2023-08-12T11:37:09;28.00;99.90
30097;DHT22;16915;51.466;3.610;2023-08-12T11:39:34;28.20;99.90
30097;DHT22;16915;51.466;3.610;2023-08-12T11:42:00;28.10;99.90
30097;DHT22;16915;51.466;3.610;2023-08-12T11:44:26;28.20;99.90
30097;DHT22;16915;51.466;3.610;2023-08-12T11:46:51;28.40;99.90
30097;DHT22;16915;51.466;3.610;2023-08-12T11:49:18;28.60;99.90
30097;DHT22;16915;51.466;3.610;2023-08-12T11:51:45;28.80;99.90
30097;DHT22;16915;51.466;3.610;2023-08-12T11:54:12;28.90;99.90
30097;DHT22;16915;51.466;3.610;2023-08-12T11:56:38;29.20;99.90
30097;DHT22;16915;51.466;3.610;2023-08-12T11:59:04;29.60;99.90
30097;DHT22;16915;51.466;3.610;2023-08-12T12:01:31;29.70;99.90
30097;DHT22;16915;51.466;3.610;2023-08-12T12:04:00;29.80;99.90
30097;DHT22;16915;51.466;3.610;2023-08-12T12:06:35;29.60;99.90
30097;DHT22;16915;51.466;3.610;2023-08-12T12:09:06;29.30;99.90
30097;DHT22;16915;51.466;3.610;2023-08-12T12:11:38;28.60;99.90
30097;DHT22;16915;51.466;3.610;2023-08-12T12:14:05;28.80;99.90
30097;DHT22;16915;51.466;3.610;2023-08-12T12:16:41;29.20;99.90
30097;DHT22;16915;51.466;3.610;2023-08-12T12:19:19;29.60;99.90
30097;DHT22;16915;51.466;3.610;2023-08-12T12:21:49;29.60;99.90
30097;DHT22;16915;51.466;3.610;2023-08-12T12:24:16;30.10;99.90
30097;DHT22;16915;51.466;3.610;2023-08-12T12:26:43;30.60;99.90
30097;DHT22;16915;51.466;3.610;2023-08-12T12:29:10;30.80;99.90
30097;DHT22;16915;51.466;3.610;2023-08-12T12:31:39;30.80;99.90
30097;DHT22;16915;51.466;3.610;2023-08-12T12:34:06;31.10;99.90
30097;DHT22;16915;51.466;3.610;2023-08-12T12:36:34;30.70;99.90
30097;DHT22;16915;51.466;3.610;2023-08-12T12:39:00;30.50;99.90
30097;DHT22;16915;51.466;3.610;2023-08-12T12:41:26;30.20;99.90
30097;DHT22;16915;51.466;3.610;2023-08-12T12:43:51;30.30;99.90
30097;DHT22;16915;51.466;3.610;2023-08-12T12:46:17;30.40;99.90
30097;DHT22;16915;51.466;3.610;2023-08-12T12:48:43;30.80;99.90
30097;DHT22;16915;51.466;3.610;2023-08-12T12:51:10;31.00;99.90
30097;DHT22;16915;51.466;3.610;2023-08-12T12:53:36;31.30;99.90
30097;DHT22;16915;51.466;3.610;2023-08-12T12:56:01;31.20;99.90
30097;DHT22;16915;51.466;3.610;2023-08-12T12:58:33;31.40;99.90
30097;DHT22;16915;51.466;3.610;2023-08-12T13:01:00;31.40;99.90
30097;DHT22;16915;51.466;3.610;2023-08-12T13:03:25;31.50;99.90
30097;DHT22;16915;51.466;3.610;2023-08-12T13:05:51;31.60;99.90
30097;DHT22;16915;51.466;3.610;2023-08-12T13:08:17;31.50;99.90
30097;DHT22;16915;51.466;3.610;2023-08-12T13:10:42;31.40;99.90
30097;DHT22;16915;51.466;3.610;2023-08-12T13:13:08;31.30;99.90
30097;DHT22;16915;51.466;3.610;2023-08-12T13:15:34;31.50;99.90
30097;DHT22;16915;51.466;3.610;2023-08-12T13:18:00;31.70;99.90
30097;DHT22;16915;51.466;3.610;2023-08-12T13:20:25;31.90;99.90
30097;DHT22;16915;51.466;3.610;2023-08-12T13:22:51;32.20;99.90
30097;DHT22;16915;51.466;3.610;2023-08-12T13:25:17;32.60;99.90
30097;DHT22;16915;51.466;3.610;2023-08-12T13:27:42;33.10;99.90
30097;DHT22;16915;51.466;3.610;2023-08-12T13:30:09;33.10;99.90
30097;DHT22;16915;51.466;3.610;2023-08-12T13:32:37;32.70;99.90
30097;DHT22;16915;51.466;3.610;2023-08-12T13:35:03;32.50;99.90
30097;DHT22;16915;51.466;3.610;2023-08-12T13:37:29;32.30;99.90
30097;DHT22;16915;51.466;3.610;2023-08-12T13:39:54;31.90;99.90
30097;DHT22;16915;51.466;3.610;2023-08-12T13:42:20;31.70;99.90
30097;DHT22;16915;51.466;3.610;2023-08-12T13:44:46;31.80;99.90
30097;DHT22;16915;51.466;3.610;2023-08-12T13:47:11;32.10;99.90
30097;DHT22;16915;51.466;3.610;2023-08-12T13:49:37;32.40;99.90
30097;DHT22;16915;51.466;3.610;2023-08-12T13:52:03;32.50;99.90
30097;DHT22;16915;51.466;3.610;2023-08-12T13:54:28;32.40;99.90
30097;DHT22;16915;51.466;3.610;2023-08-12T13:56:54;32.20;99.90
30097;DHT22;16915;51.466;3.610;2023-08-12T13:59:20;31.90;99.90
30097;DHT22;16915;51.466;3.610;2023-08-12T14:01:45;31.80;99.90
30097;DHT22;16915;51.466;3.610;2023-08-12T14:04:11;31.70;99.90
30097;DHT22;16915;51.466;3.610;2023-08-12T14:06:37;31.50;99.90
30097;DHT22;16915;51.466;3.610;2023-08-12T14:09:03;31.50;99.90
30097;DHT22;16915;51.466;3.610;2023-08-12T14:11:28;32.00;99.90
30097;DHT22;16915;51.466;3.610;2023-08-12T14:13:57;31.90;99.90
30097;DHT22;16915;51.466;3.610;2023-08-12T14:16:22;32.10;99.90
30097;DHT22;16915;51.466;3.610;2023-08-12T14:18:48;32.30;99.90
30097;DHT22;16915;51.466;3.610;2023-08-12T14:21:14;32.50;99.90
30097;DHT22;16915;51.466;3.610;2023-08-12T14:23:39;32.10;99.90
30097;DHT22;16915;51.466;3.610;2023-08-12T14:26:05;31.70;99.90
30097;DHT22;16915;51.466;3.610;2023-08-12T14:28:30;31.70;99.90
30097;DHT22;16915;51.466;3.610;2023-08-12T14:30:56;31.30;99.90
30097;DHT22;16915;51.466;3.610;2023-08-12T14:33:21;31.20;99.90
30097;DHT22;16915;51.466;3.610;2023-08-12T14:35:50;31.40;99.90
30097;DHT22;16915;51.466;3.610;2023-08-12T14:38:16;31.90;99.90
30097;DHT22;16915;51.466;3.610;2023-08-12T14:40:42;32.00;99.90
30097;DHT22;16915;51.466;3.610;2023-08-12T14:43:11;32.30;99.90
30097;DHT22;16915;51.466;3.610;2023-08-12T14:45:37;32.60;99.90
30097;DHT22;16915;51.466;3.610;2023-08-12T14:48:03;32.90;99.90
30097;DHT22;16915;51.466;3.610;2023-08-12T14:50:28;32.80;99.70
30097;DHT22;16915;51.466;3.610;2023-08-12T14:52:55;32.70;99.90
30097;DHT22;16915;51.466;3.610;2023-08-12T14:55:21;32.90;99.90
30097;DHT22;16915;51.466;3.610;2023-08-12T14:57:46;32.90;99.90
30097;DHT22;16915;51.466;3.610;2023-08-12T15:00:12;33.20;99.90
30097;DHT22;16915;51.466;3.610;2023-08-12T15:02:38;33.70;99.90
30097;DHT22;16915;51.466;3.610;2023-08-12T15:05:04;33.90;99.90
30097;DHT22;16915;51.466;3.610;2023-08-12T15:07:31;33.90;98.80
30097;DHT22;16915;51.466;3.610;2023-08-12T15:09:56;33.60;98.70
30097;DHT22;16915;51.466;3.610;2023-08-12T15:12:23;33.20;98.90
30097;DHT22;16915;51.466;3.610;2023-08-12T15:14:49;33.10;99.40
30097;DHT22;16915;51.466;3.610;2023-08-12T15:17:15;33.00;99.20
30097;DHT22;16915;51.466;3.610;2023-08-12T15:19:40;33.20;99.80
30097;DHT22;16915;51.466;3.610;2023-08-12T15:22:06;33.20;99.00
30097;DHT22;16915;51.466;3.610;2023-08-12T15:24:31;32.70;99.40
30097;DHT22;16915;51.466;3.610;2023-08-12T15:26:57;32.60;99.60
30097;DHT22;16915;51.466;3.610;2023-08-12T15:29:23;32.90;99.70